Saint Johns, Florida
Current Conditions -  °F | °C
As of 9:53 AM on Tuesday 21 Oct 2014 (Local Time) from KNIP Reporting Station
Few Clouds Few Clouds  
Wind Chill: 74°   Ceiling: Unl
Heat Index: 74°   Visibility: 10mi
Dew Point: 65°   Wind: 6mph
Humidity: 73%   Direction: 340°NNW
Pressure: 30"   Gusts: NA
Location:  30.0735°N, 81.5808°W
Report Text: KNIP 211353Z 34005KT 10SM FEW250 23/18 A3000 RMK AO2 SLP156 T02330183
Loading
Personal Weather Stations






























Interactive Weather Map
Tropical Storm Tracking
New forecast layout! Learn more

10-Day Weather Forecast

Advertisements
Track Severe Weather on mobile